Time;durP1;ratioP1;P1;durP2;ratioP2;P2;SDS_P1;SDS_P2;PMS_P1;PMS_P2;Temp;Humidity;BMP_temperature;BMP_pressure;BME280_temperature;BME280_humidity;BME280_pressure;Samples;Min_cycle;Max_cycle;Signal;HPM_P1;HPM_P2
2022/06/01 00:00:46;;;;;;;10.93;5.50;;;;;;;;;;5011412;28;20497;-87
2022/06/01 00:03:12;;;;;;;11.27;5.55;;;;;;;;;;4985657;28;20032;-87
2022/06/01 00:05:37;;;;;;;16.10;4.82;;;;;;;;;;4989611;28;20081;-87
2022/06/01 00:08:04;;;;;;;9.90;5.68;;;;;;;;;;5013310;28;20048;-86
2022/06/01 00:10:29;;;;;;;12.00;5.85;;;;;;;;;;4996061;28;20470;-84
2022/06/01 00:12:55;;;;;;;11.52;4.88;;;;;;;;;;5013473;28;20029;-85
2022/06/01 00:15:22;;;;;;;12.57;5.53;;;;;;;;;;4992457;28;20088;-87
2022/06/01 00:17:48;;;;;;;12.77;4.80;;;;;;;;;;4994658;28;20048;-83
2022/06/01 00:20:14;;;;;;;12.23;4.47;;;;;;;;;;5013224;28;20029;-91
2022/06/01 00:22:44;;;;;;;9.00;4.70;;;;;;;;;;4995981;28;20064;-87
2022/06/01 00:25:10;;;;;;;8.95;3.95;;;;;;;;;;5010723;28;20482;-87
2022/06/01 00:27:36;;;;;;;7.47;4.68;;;;;;;;;;5012581;28;20097;-86
2022/06/01 00:30:08;;;;;;;9.45;4.45;;;;;;;;;;4993462;28;20116;-88
2022/06/01 00:32:34;;;;;;;9.10;4.90;;;;;;;;;;5007484;28;20029;-87
2022/06/01 00:35:00;;;;;;;9.65;4.45;;;;;;;;;;5010871;28;20038;-86
2022/06/01 00:37:26;;;;;;;15.50;5.13;;;;;;;;;;5012194;28;20474;-85
2022/06/01 00:39:55;;;;;;;12.95;4.72;;;;;;;;;;5010144;28;20033;-87
2022/06/01 00:42:24;;;;;;;8.82;5.60;;;;;;;;;;4993855;28;20772;-84
2022/06/01 00:44:50;;;;;;;12.02;5.65;;;;;;;;;;5012395;28;20037;-85
2022/06/01 00:47:16;;;;;;;11.63;4.90;;;;;;;;;;5012398;28;20042;-86
2022/06/01 00:49:47;;;;;;;16.60;5.00;;;;;;;;;;4992934;28;20045;-85
2022/06/01 00:52:15;;;;;;;19.58;4.45;;;;;;;;;;5012203;28;20022;-87
2022/06/01 00:54:41;;;;;;;10.38;4.60;;;;;;;;;;5012360;28;20025;-87
2022/06/01 00:57:10;;;;;;;12.23;4.53;;;;;;;;;;4994209;28;20033;-85
2022/06/01 00:59:41;;;;;;;13.32;4.88;;;;;;;;;;5005657;28;20033;-85
2022/06/01 01:02:08;;;;;;;9.13;4.53;;;;;;;;;;4993369;28;20031;-86
2022/06/01 01:04:36;;;;;;;12.43;4.20;;;;;;;;;;4994974;28;20036;-86
2022/06/01 01:07:06;;;;;;;11.85;4.20;;;;;;;;;;5012471;28;20026;-85
2022/06/01 01:09:34;;;;;;;7.32;3.70;;;;;;;;;;5011095;28;20034;-86
2022/06/01 01:12:08;;;;;;;5.25;4.07;;;;;;;;;;4992716;28;20088;-85
2022/06/01 01:14:37;;;;;;;10.20;4.10;;;;;;;;;;5011055;28;20389;-86
2022/06/01 01:17:04;;;;;;;10.47;3.77;;;;;;;;;;5009790;28;20030;-86
2022/06/01 01:19:48;;;;;;;7.13;4.13;;;;;;;;;;5011840;28;20742;-86
2022/06/01 01:22:29;;;;;;;10.90;4.20;;;;;;;;;;4991659;28;20029;-86
2022/06/01 01:25:15;;;;;;;7.85;4.53;;;;;;;;;;5008503;28;20041;-85
2022/06/01 01:27:42;;;;;;;9.05;3.75;;;;;;;;;;5011883;28;20433;-85
2022/06/01 01:30:35;;;;;;;11.07;4.63;;;;;;;;;;5011760;28;20026;-86
2022/06/01 01:33:09;;;;;;;9.15;3.83;;;;;;;;;;5008743;28;20164;-85
2022/06/01 01:35:35;;;;;;;7.47;3.08;;;;;;;;;;5010532;28;20041;-85
2022/06/01 01:38:06;;;;;;;12.38;4.93;;;;;;;;;;4992840;28;20044;-84
2022/06/01 01:40:32;;;;;;;7.95;3.95;;;;;;;;;;4988816;28;20030;-86
2022/06/01 01:42:59;;;;;;;9.85;3.47;;;;;;;;;;5011382;28;20026;-83
2022/06/01 01:45:32;;;;;;;8.73;3.85;;;;;;;;;;5011168;28;20096;-85
2022/06/01 01:47:58;;;;;;;11.70;3.88;;;;;;;;;;5009037;28;20120;-85
2022/06/01 01:50:25;;;;;;;4.93;3.25;;;;;;;;;;4994244;28;20032;-84
2022/06/01 01:52:52;;;;;;;8.10;3.40;;;;;;;;;;4994228;28;20509;-84
2022/06/01 01:55:41;;;;;;;8.60;3.28;;;;;;;;;;4991330;28;20026;-85
2022/06/01 01:58:46;;;;;;;6.70;3.50;;;;;;;;;;5011116;28;20465;-83
2022/06/01 02:01:19;;;;;;;6.32;3.03;;;;;;;;;;4993051;28;20033;-84
2022/06/01 02:04:05;;;;;;;4.82;3.17;;;;;;;;;;4991160;28;20473;-85
2022/06/01 02:06:37;;;;;;;6.45;3.80;;;;;;;;;;4993987;28;20594;-85
2022/06/01 02:09:08;;;;;;;6.95;3.47;;;;;;;;;;5010156;28;20026;-87
2022/06/01 02:14:38;;;;;;;5.85;3.55;;;;;;;;;;5010642;28;20512;-86
2022/06/01 02:17:06;;;;;;;7.15;3.20;;;;;;;;;;4993361;28;20477;-85
2022/06/01 02:19:42;;;;;;;10.20;3.65;;;;;;;;;;4995554;28;20436;-86
2022/06/01 02:22:10;;;;;;;13.93;4.25;;;;;;;;;;4995714;28;20022;-86
2022/06/01 02:24:37;;;;;;;5.90;3.53;;;;;;;;;;5015111;28;20030;-86
2022/06/01 02:27:04;;;;;;;11.38;3.65;;;;;;;;;;4997667;28;20025;-84
2022/06/01 02:29:35;;;;;;;12.75;4.47;;;;;;;;;;4997135;28;20025;-85
2022/06/01 02:32:02;;;;;;;9.10;3.72;;;;;;;;;;5014369;28;20381;-86
2022/06/01 02:34:29;;;;;;;12.77;3.83;;;;;;;;;;5014608;28;20030;-85
2022/06/01 02:36:56;;;;;;;14.88;3.80;;;;;;;;;;4986014;28;20049;-86
2022/06/01 02:39:23;;;;;;;8.93;3.60;;;;;;;;;;5001106;28;20037;-86
2022/06/01 02:44:33;;;;;;;11.70;3.88;;;;;;;;;;5000318;28;20041;-85
2022/06/01 02:46:58;;;;;;;8.93;4.10;;;;;;;;;;4988066;28;20030;-84
2022/06/01 02:49:24;;;;;;;5.82;3.60;;;;;;;;;;4982304;28;20045;-86
2022/06/01 02:52:12;;;;;;;9.00;3.67;;;;;;;;;;5004273;28;20709;-86
2022/06/01 02:54:52;;;;;;;4.55;3.05;;;;;;;;;;4974416;28;20038;-83
2022/06/01 02:57:18;;;;;;;7.25;3.63;;;;;;;;;;4993450;28;20029;-85
2022/06/01 02:59:44;;;;;;;10.23;3.97;;;;;;;;;;4975824;28;20508;-85
2022/06/01 03:02:09;;;;;;;8.32;3.50;;;;;;;;;;4990688;28;20497;-84
2022/06/01 03:04:37;;;;;;;8.23;3.53;;;;;;;;;;4991822;28;20026;-85
2022/06/01 03:07:05;;;;;;;5.45;3.00;;;;;;;;;;4979977;28;20032;-85
2022/06/01 03:09:31;;;;;;;7.03;3.20;;;;;;;;;;5000793;28;20033;-86
2022/06/01 03:11:57;;;;;;;6.90;3.35;;;;;;;;;;4993683;28;20025;-86
2022/06/01 03:14:23;;;;;;;7.60;3.20;;;;;;;;;;5002696;28;20022;-83
2022/06/01 03:16:48;;;;;;;7.28;3.80;;;;;;;;;;5000806;28;20027;-85
2022/06/01 03:19:14;;;;;;;7.93;3.83;;;;;;;;;;4999260;28;20034;-85
2022/06/01 03:21:43;;;;;;;7.97;4.10;;;;;;;;;;4996648;28;20470;-84
2022/06/01 03:24:09;;;;;;;9.82;4.13;;;;;;;;;;5004329;28;20397;-84
2022/06/01 03:26:35;;;;;;;8.00;3.90;;;;;;;;;;5000929;28;20030;-84
2022/06/01 03:29:02;;;;;;;7.47;3.83;;;;;;;;;;4985942;28;20375;-86
2022/06/01 03:31:27;;;;;;;6.75;4.05;;;;;;;;;;4985323;28;20367;-84
2022/06/01 03:33:52;;;;;;;6.35;3.45;;;;;;;;;;5002492;28;20032;-86
2022/06/01 03:36:19;;;;;;;9.00;3.70;;;;;;;;;;5006046;28;20379;-85
2022/06/01 03:38:45;;;;;;;6.55;3.60;;;;;;;;;;5001754;28;20038;-84
2022/06/01 03:41:11;;;;;;;14.30;3.70;;;;;;;;;;5000115;28;20026;-83
2022/06/01 03:46:20;;;;;;;8.73;4.18;;;;;;;;;;5006993;28;20084;-85
2022/06/01 03:48:46;;;;;;;8.48;2.53;;;;;;;;;;4987904;28;20022;-84
2022/06/01 03:51:11;;;;;;;7.57;3.10;;;;;;;;;;5000403;28;20030;-84
2022/06/01 03:53:37;;;;;;;5.20;3.33;;;;;;;;;;4978475;28;20030;-85
2022/06/01 03:56:03;;;;;;;9.77;3.13;;;;;;;;;;5005126;28;20026;-84
2022/06/01 03:58:29;;;;;;;9.02;4.00;;;;;;;;;;4988487;28;20034;-83
2022/06/01 04:00:55;;;;;;;6.95;3.67;;;;;;;;;;4983138;28;20022;-83
2022/06/01 04:03:21;;;;;;;7.88;3.70;;;;;;;;;;5004748;28;20158;-83
2022/06/01 04:05:46;;;;;;;10.63;5.13;;;;;;;;;;4979222;28;20030;-83
2022/06/01 04:08:12;;;;;;;7.60;5.20;;;;;;;;;;5004032;28;20101;-82
2022/06/01 04:10:42;;;;;;;6.72;4.32;;;;;;;;;;4984714;28;20030;-83
2022/06/01 04:13:07;;;;;;;8.43;5.07;;;;;;;;;;4981535;28;20057;-84
2022/06/01 04:15:33;;;;;;;10.30;5.30;;;;;;;;;;4981509;28;20482;-83
2022/06/01 04:17:58;;;;;;;13.25;5.75;;;;;;;;;;4982583;28;20035;-83
2022/06/01 04:20:25;;;;;;;8.98;6.10;;;;;;;;;;4999763;28;20078;-83
2022/06/01 04:22:54;;;;;;;10.48;7.00;;;;;;;;;;4985618;28;20037;-83
2022/06/01 04:25:21;;;;;;;11.07;5.97;;;;;;;;;;5002755;28;20638;-84
2022/06/01 04:27:47;;;;;;;8.57;6.45;;;;;;;;;;5004792;28;20279;-82
2022/06/01 04:30:15;;;;;;;9.88;6.07;;;;;;;;;;5004128;28;20030;-82
2022/06/01 04:32:43;;;;;;;12.52;7.65;;;;;;;;;;4983811;28;20164;-83
2022/06/01 04:35:08;;;;;;;10.68;6.80;;;;;;;;;;4987133;28;20050;-83
2022/06/01 04:37:34;;;;;;;13.65;8.07;;;;;;;;;;4972380;28;20379;-83
2022/06/01 04:40:00;;;;;;;10.82;7.93;;;;;;;;;;4991869;28;20029;-84
2022/06/01 04:42:25;;;;;;;10.98;8.25;;;;;;;;;;4983157;28;20064;-86
2022/06/01 04:44:52;;;;;;;11.73;8.10;;;;;;;;;;4999180;28;20508;-84
2022/06/01 04:47:19;;;;;;;13.15;7.60;;;;;;;;;;4981303;28;20025;-87
2022/06/01 04:49:46;;;;;;;13.65;9.32;;;;;;;;;;4971380;28;20053;-84
2022/06/01 04:52:14;;;;;;;19.50;10.38;;;;;;;;;;4982626;28;20027;-83
2022/06/01 04:54:39;;;;;;;14.27;10.10;;;;;;;;;;4999137;28;20037;-86
2022/06/01 04:57:06;;;;;;;17.25;10.70;;;;;;;;;;4998413;28;20027;-84
2022/06/01 04:59:32;;;;;;;19.23;12.93;;;;;;;;;;4991989;28;20022;-86
2022/06/01 05:01:59;;;;;;;20.63;12.75;;;;;;;;;;4970313;28;20023;-86
2022/06/01 05:04:25;;;;;;;16.75;12.77;;;;;;;;;;4997889;28;20114;-82
2022/06/01 05:06:50;;;;;;;16.40;11.88;;;;;;;;;;4996925;28;20045;-84
2022/06/01 05:09:16;;;;;;;21.98;13.35;;;;;;;;;;4975947;28;20022;-84
2022/06/01 05:11:41;;;;;;;22.55;12.60;;;;;;;;;;4969964;28;20026;-84
2022/06/01 05:14:07;;;;;;;20.75;12.80;;;;;;;;;;4970672;28;20030;-83
2022/06/01 05:16:33;;;;;;;21.00;13.02;;;;;;;;;;4993360;28;20026;-85
2022/06/01 05:18:59;;;;;;;18.80;12.38;;;;;;;;;;4975025;28;20026;-83
2022/06/01 05:21:24;;;;;;;18.65;12.13;;;;;;;;;;4988970;28;20066;-83
2022/06/01 05:23:49;;;;;;;15.18;10.90;;;;;;;;;;4994919;28;20048;-82
2022/06/01 05:26:15;;;;;;;18.77;11.90;;;;;;;;;;4982282;28;20030;-84
2022/06/01 05:28:40;;;;;;;16.65;11.77;;;;;;;;;;4985092;28;20391;-85
2022/06/01 05:31:09;;;;;;;16.50;11.25;;;;;;;;;;4976258;28;20061;-87
2022/06/01 05:33:35;;;;;;;18.08;11.40;;;;;;;;;;4995825;28;20038;-84
2022/06/01 05:36:01;;;;;;;15.98;11.75;;;;;;;;;;4978710;28;20053;-84
2022/06/01 05:38:27;;;;;;;17.10;12.13;;;;;;;;;;5003977;28;20041;-83
2022/06/01 05:40:53;;;;;;;16.60;11.55;;;;;;;;;;5008409;28;20030;-86
2022/06/01 05:43:20;;;;;;;15.75;11.93;;;;;;;;;;5005452;28;20552;-84
2022/06/01 05:45:46;;;;;;;18.98;12.05;;;;;;;;;;5006719;28;20026;-88
2022/06/01 05:48:15;;;;;;;15.52;12.20;;;;;;;;;;5006036;28;20469;-82
2022/06/01 05:50:40;;;;;;;15.38;11.57;;;;;;;;;;5007526;28;20104;-85
2022/06/01 05:53:06;;;;;;;20.25;12.15;;;;;;;;;;4992475;28;20128;-85
2022/06/01 05:55:35;;;;;;;18.23;11.68;;;;;;;;;;5013203;28;20051;-82
2022/06/01 05:58:10;;;;;;;17.17;10.43;;;;;;;;;;4993197;28;20425;-84
2022/06/01 06:00:35;;;;;;;14.68;10.55;;;;;;;;;;5013192;28;20036;-85
2022/06/01 06:03:01;;;;;;;17.60;11.15;;;;;;;;;;5013031;28;20029;-83
2022/06/01 06:08:10;;;;;;;17.13;10.40;;;;;;;;;;5010987;28;20117;-83
2022/06/01 06:10:37;;;;;;;14.20;10.57;;;;;;;;;;5013607;28;20116;-80
2022/06/01 06:13:02;;;;;;;14.65;11.20;;;;;;;;;;5014185;28;20088;-80
2022/06/01 06:15:28;;;;;;;14.50;10.85;;;;;;;;;;5014986;28;20025;-80
2022/06/01 06:17:53;;;;;;;15.05;10.55;;;;;;;;;;4994589;28;20117;-82
2022/06/01 06:20:19;;;;;;;15.57;10.93;;;;;;;;;;4994937;28;20022;-81
2022/06/01 06:22:45;;;;;;;16.13;9.88;;;;;;;;;;4992887;28;20355;-80
2022/06/01 06:25:10;;;;;;;12.40;9.50;;;;;;;;;;5013171;28;20053;-84
2022/06/01 06:27:36;;;;;;;16.05;9.60;;;;;;;;;;5012362;28;20029;-85
2022/06/01 06:30:01;;;;;;;16.00;9.57;;;;;;;;;;4991210;28;20053;-83
2022/06/01 06:32:28;;;;;;;12.48;7.88;;;;;;;;;;4995200;28;20105;-81
2022/06/01 06:34:54;;;;;;;11.30;7.57;;;;;;;;;;5012087;28;20037;-82
2022/06/01 06:37:20;;;;;;;11.55;7.47;;;;;;;;;;5008715;28;20405;-85
2022/06/01 06:39:45;;;;;;;11.65;8.32;;;;;;;;;;5008755;28;20034;-83
2022/06/01 06:42:11;;;;;;;12.40;8.80;;;;;;;;;;5008198;28;20026;-84
2022/06/01 06:44:36;;;;;;;12.30;8.30;;;;;;;;;;4993886;28;20071;-85
2022/06/01 06:47:03;;;;;;;13.98;7.55;;;;;;;;;;5012181;28;20033;-81
2022/06/01 06:49:29;;;;;;;12.45;8.18;;;;;;;;;;4993378;28;20025;-82
2022/06/01 06:51:54;;;;;;;15.32;7.82;;;;;;;;;;4992219;28;20122;-84
2022/06/01 06:54:20;;;;;;;13.02;8.73;;;;;;;;;;4993790;28;20426;-83
2022/06/01 06:56:45;;;;;;;12.95;7.88;;;;;;;;;;5012392;28;20473;-85
2022/06/01 06:59:12;;;;;;;13.07;8.05;;;;;;;;;;4996428;28;20033;-82
2022/06/01 07:01:38;;;;;;;11.77;7.32;;;;;;;;;;5011040;28;20493;-82
2022/06/01 07:04:04;;;;;;;10.88;7.75;;;;;;;;;;5015465;28;20033;-83
2022/06/01 07:06:30;;;;;;;13.48;8.07;;;;;;;;;;5013245;28;20358;-84
2022/06/01 07:08:56;;;;;;;11.93;7.90;;;;;;;;;;4994227;28;20022;-90
2022/06/01 07:11:26;;;;;;;13.98;8.20;;;;;;;;;;5009745;28;20454;-85
2022/06/01 07:13:52;;;;;;;;;;;;;;;;;;5013025;28;20109;-85
2022/06/01 07:16:21;;;;;;;11.27;7.07;;;;;;;;;;5015020;28;19909;-83
2022/06/01 07:18:49;;;;;;;15.13;7.95;;;;;;;;;;5013595;28;20385;-82
2022/06/01 07:21:16;;;;;;;11.45;7.10;;;;;;;;;;5008226;28;20041;-83
2022/06/01 07:23:42;;;;;;;13.35;8.18;;;;;;;;;;5010466;28;20026;-85
2022/06/01 07:26:11;;;;;;;9.82;6.78;;;;;;;;;;5008957;28;20033;-85
2022/06/01 07:28:37;;;;;;;15.00;7.07;;;;;;;;;;4993131;28;20022;-82
2022/06/01 07:31:04;;;;;;;50.58;33.25;;;;;;;;;;4993401;28;20026;-85
2022/06/01 07:33:30;;;;;;;11.40;8.65;;;;;;;;;;5008751;28;20271;-83
2022/06/01 07:36:00;;;;;;;10.88;7.70;;;;;;;;;;5011231;28;20046;-83
2022/06/01 07:44:00;;;;;;;13.13;7.30;;;;;;;;;;5012281;28;20104;-81
2022/06/01 07:46:26;;;;;;;12.95;7.28;;;;;;;;;;5010488;28;20041;-81
2022/06/01 07:48:53;;;;;;;10.10;7.40;;;;;;;;;;4992588;28;20050;-85
2022/06/01 07:51:20;;;;;;;8.45;6.50;;;;;;;;;;5011317;28;20149;-83
2022/06/01 07:53:46;;;;;;;10.05;6.07;;;;;;;;;;4983966;28;20030;-81
2022/06/01 07:56:11;;;;;;;13.57;7.82;;;;;;;;;;4994464;28;20470;-83
2022/06/01 07:58:37;;;;;;;12.60;7.75;;;;;;;;;;5011337;28;20065;-83
2022/06/01 08:01:03;;;;;;;28.88;20.40;;;;;;;;;;4995587;28;20489;-82
2022/06/01 08:03:29;;;;;;;9.38;7.68;;;;;;;;;;5009320;28;20034;-83
2022/06/01 08:05:54;;;;;;;17.63;13.23;;;;;;;;;;5008238;28;20529;-81
2022/06/01 08:08:20;;;;;;;14.38;11.70;;;;;;;;;;5011459;28;20448;-82
2022/06/01 08:10:46;;;;;;;11.20;7.38;;;;;;;;;;5004862;28;20023;-83
2022/06/01 08:13:13;;;;;;;12.90;9.00;;;;;;;;;;5008366;28;20422;-83
2022/06/01 08:15:44;;;;;;;15.60;7.75;;;;;;;;;;5009564;28;20397;-82
2022/06/01 08:18:12;;;;;;;9.93;7.13;;;;;;;;;;5010641;28;20092;-82
2022/06/01 08:20:38;;;;;;;11.05;8.05;;;;;;;;;;5007848;28;20445;-82
2022/06/01 08:23:05;;;;;;;17.58;8.50;;;;;;;;;;5010803;28;20597;-80
2022/06/01 08:25:32;;;;;;;12.82;7.78;;;;;;;;;;4986532;28;20355;-82
2022/06/01 08:27:58;;;;;;;12.32;7.18;;;;;;;;;;5010084;28;20543;-82
2022/06/01 08:30:25;;;;;;;13.32;7.22;;;;;;;;;;4992840;28;20033;-81
2022/06/01 08:32:53;;;;;;;14.68;7.75;;;;;;;;;;5010829;28;20388;-81
2022/06/01 08:35:32;;;;;;;17.15;8.10;;;;;;;;;;5007572;28;20050;-81
2022/06/01 08:37:59;;;;;;;9.75;6.97;;;;;;;;;;4987692;28;20065;-83
2022/06/01 08:41:04;;;;;;;14.38;6.82;;;;;;;;;;5002250;28;20109;-82
2022/06/01 08:43:35;;;;;;;12.45;6.70;;;;;;;;;;4934359;28;20572;-83
2022/06/01 08:46:02;;;;;;;9.93;6.97;;;;;;;;;;4992656;28;20049;-82
2022/06/01 08:48:39;;;;;;;11.60;7.53;;;;;;;;;;4997584;28;20049;-84
2022/06/01 08:51:06;;;;;;;17.65;8.30;;;;;;;;;;4988458;28;20097;-86
2022/06/01 08:53:32;;;;;;;12.23;6.80;;;;;;;;;;5008171;28;20025;-83
2022/06/01 08:56:09;;;;;;;12.43;7.28;;;;;;;;;;5009571;28;20057;-82
2022/06/01 08:58:46;;;;;;;12.00;6.50;;;;;;;;;;5004771;28;20158;-82
2022/06/01 09:01:26;;;;;;;11.32;6.75;;;;;;;;;;4989019;28;20564;-81
2022/06/01 09:04:10;;;;;;;8.13;6.18;;;;;;;;;;4990859;28;20038;-82
2022/06/01 09:06:42;;;;;;;10.70;6.18;;;;;;;;;;4990842;28;20061;-84
2022/06/01 09:09:17;;;;;;;8.60;6.18;;;;;;;;;;5010793;28;20083;-82
2022/06/01 09:11:46;;;;;;;11.27;6.68;;;;;;;;;;5011460;28;20026;-84
2022/06/01 09:14:16;;;;;;;14.47;6.70;;;;;;;;;;5012447;28;20520;-81
2022/06/01 09:16:48;;;;;;;12.63;7.20;;;;;;;;;;5008514;28;20045;-83
2022/06/01 09:19:20;;;;;;;13.02;6.80;;;;;;;;;;4983102;28;20108;-82
2022/06/01 09:24:39;;;;;;;13.13;6.60;;;;;;;;;;5008360;28;20088;-83
2022/06/01 09:27:08;;;;;;;9.48;6.22;;;;;;;;;;5007630;28;20026;-81
2022/06/01 09:29:49;;;;;;;10.50;7.15;;;;;;;;;;4990281;28;20492;-82
2022/06/01 09:32:33;;;;;;;10.10;6.15;;;;;;;;;;5006461;28;20508;-82
2022/06/01 09:35:10;;;;;;;12.35;6.03;;;;;;;;;;4988542;28;20052;-81
2022/06/01 09:37:40;;;;;;;10.57;6.10;;;;;;;;;;5010190;28;20041;-84
2022/06/01 09:40:28;;;;;;;13.98;6.10;;;;;;;;;;5009447;28;20034;-84
2022/06/01 09:42:54;;;;;;;8.30;5.90;;;;;;;;;;5002936;28;20027;-83
2022/06/01 09:45:47;;;;;;;9.60;5.80;;;;;;;;;;5002625;28;20026;-83
2022/06/01 09:48:21;;;;;;;12.48;5.90;;;;;;;;;;4999090;28;20065;-82
2022/06/01 09:51:02;;;;;;;11.80;5.30;;;;;;;;;;5010274;28;20377;-91
2022/06/01 09:53:36;;;;;;;9.00;5.57;;;;;;;;;;5007555;28;20033;-89
2022/06/01 09:56:03;;;;;;;10.02;4.80;;;;;;;;;;4989254;28;20530;-84
2022/06/01 10:07:28;;;;;;;5.70;4.07;;;;;;;;;;5008994;28;20072;-81
2022/06/01 10:10:01;;;;;;;6.88;4.55;;;;;;;;;;5003127;28;20788;-86
2022/06/01 10:12:47;;;;;;;8.40;4.07;;;;;;;;;;4993711;28;20470;-86
2022/06/01 10:15:30;;;;;;;9.50;4.80;;;;;;;;;;5003755;28;20363;-84
2022/06/01 10:18:00;;;;;;;7.05;4.35;;;;;;;;;;5007802;28;20032;-83
2022/06/01 10:20:35;;;;;;;6.30;3.80;;;;;;;;;;5006086;28;20030;-83
2022/06/01 10:23:13;;;;;;;8.07;4.03;;;;;;;;;;4986842;28;20087;-83
2022/06/01 10:25:49;;;;;;;9.05;3.90;;;;;;;;;;5009177;28;20536;-85
2022/06/01 10:28:19;;;;;;;7.05;3.40;;;;;;;;;;4987202;28;20053;-84
2022/06/01 10:30:52;;;;;;;5.03;2.80;;;;;;;;;;4990107;28;20037;-88
2022/06/01 10:33:41;;;;;;;5.15;2.70;;;;;;;;;;4998489;28;20088;-83
2022/06/01 10:36:21;;;;;;;3.80;2.95;;;;;;;;;;4991073;28;20050;-84
2022/06/01 10:38:56;;;;;;;6.43;3.10;;;;;;;;;;5007154;28;20382;-84
2022/06/01 10:41:32;;;;;;;7.40;3.03;;;;;;;;;;5010929;28;20104;-85
2022/06/01 10:44:23;;;;;;;6.85;2.90;;;;;;;;;;5008202;28;20026;-83
2022/06/01 10:47:14;;;;;;;6.95;3.10;;;;;;;;;;5009369;28;20048;-83
2022/06/01 10:50:07;;;;;;;6.75;3.40;;;;;;;;;;5012112;28;20585;-82
2022/06/01 10:52:37;;;;;;;5.30;2.97;;;;;;;;;;4995718;28;20030;-85
2022/06/01 10:55:18;;;;;;;5.65;3.35;;;;;;;;;;5009637;28;20046;-85
2022/06/01 10:57:48;;;;;;;6.47;3.38;;;;;;;;;;4991089;28;20056;-82
2022/06/01 11:00:20;;;;;;;8.88;3.38;;;;;;;;;;5010396;28;20087;-87
2022/06/01 11:03:12;;;;;;;7.82;3.42;;;;;;;;;;5008162;28;20050;-83
2022/06/01 11:06:00;;;;;;;5.28;3.22;;;;;;;;;;5011528;28;20021;-82
2022/06/01 11:08:25;;;;;;;6.78;2.80;;;;;;;;;;4992708;28;20050;-83
2022/06/01 11:11:15;;;;;;;7.70;3.22;;;;;;;;;;5006216;28;20083;-86
2022/06/01 11:13:53;;;;;;;9.57;3.78;;;;;;;;;;5007020;28;20029;-83
2022/06/01 11:16:39;;;;;;;6.45;3.13;;;;;;;;;;5008059;28;20030;-82
2022/06/01 11:19:14;;;;;;;5.10;2.92;;;;;;;;;;4991291;28;20034;-82
2022/06/01 11:21:52;;;;;;;8.07;3.45;;;;;;;;;;4992355;28;20076;-85
2022/06/01 11:24:30;;;;;;;7.15;3.38;;;;;;;;;;5010933;28;20050;-80
2022/06/01 11:27:28;;;;;;;6.17;2.50;;;;;;;;;;5010702;28;20026;-82
2022/06/01 11:29:53;;;;;;;5.95;2.50;;;;;;;;;;5009695;28;20030;-85
2022/06/01 11:32:24;;;;;;;5.95;2.53;;;;;;;;;;5007088;28;20028;-83
2022/06/01 11:35:39;;;;;;;7.88;2.90;;;;;;;;;;5008141;28;20388;-83
2022/06/01 11:38:27;;;;;;;8.15;2.80;;;;;;;;;;4916913;29;20032;-81
2022/06/01 11:41:01;;;;;;;7.78;2.60;;;;;;;;;;5010464;28;21225;-82
2022/06/01 11:43:33;;;;;;;4.82;2.65;;;;;;;;;;5008072;28;20057;-80
2022/06/01 11:46:04;;;;;;;7.57;3.25;;;;;;;;;;5007710;28;20026;-83
2022/06/01 11:48:38;;;;;;;5.22;2.88;;;;;;;;;;5009232;28;20029;-82
2022/06/01 11:51:14;;;;;;;8.40;2.45;;;;;;;;;;5007268;28;20033;-80
2022/06/01 11:54:04;;;;;;;10.70;4.55;;;;;;;;;;5010274;28;20045;-81
2022/06/01 11:56:30;;;;;;;9.48;3.28;;;;;;;;;;5007882;28;20405;-80
2022/06/01 11:59:05;;;;;;;5.88;2.63;;;;;;;;;;4989407;28;20033;-83
2022/06/01 12:01:44;;;;;;;4.88;2.47;;;;;;;;;;5010917;28;20034;-83
2022/06/01 12:04:22;;;;;;;6.93;2.88;;;;;;;;;;5006725;28;20549;-81
2022/06/01 12:07:16;;;;;;;6.55;2.60;;;;;;;;;;4990630;28;20137;-84
2022/06/01 12:09:49;;;;;;;6.55;2.92;;;;;;;;;;5001757;28;20117;-80
2022/06/01 12:12:36;;;;;;;5.80;2.83;;;;;;;;;;5005338;28;20708;-87
2022/06/01 12:15:37;;;;;;;4.13;2.38;;;;;;;;;;5013379;28;20056;-81
2022/06/01 12:18:07;;;;;;;4.93;3.08;;;;;;;;;;4989000;28;20046;-80
2022/06/01 12:20:32;;;;;;;6.82;3.60;;;;;;;;;;5010614;28;20037;-81
2022/06/01 12:28:57;;;;;;;4.85;2.35;;;;;;;;;;5008310;28;20080;-82
2022/06/01 12:31:37;;;;;;;5.38;2.40;;;;;;;;;;5008717;28;21373;-81
2022/06/01 12:34:26;;;;;;;7.90;2.75;;;;;;;;;;5007791;28;20398;-81
2022/06/01 12:37:28;;;;;;;5.90;2.30;;;;;;;;;;5005412;28;20046;-80
2022/06/01 12:40:01;;;;;;;5.53;3.03;;;;;;;;;;4987515;28;20041;-80
2022/06/01 12:42:32;;;;;;;7.38;2.67;;;;;;;;;;4987409;28;20048;-84
2022/06/01 12:45:00;;;;;;;4.05;2.17;;;;;;;;;;4992871;28;20033;-82
2022/06/01 12:47:36;;;;;;;7.37;2.17;;;;;;;;;;5004365;28;20395;-81
2022/06/01 12:50:06;;;;;;;3.85;2.05;;;;;;;;;;5004744;28;20060;-83
2022/06/01 12:52:32;;;;;;;4.97;1.90;;;;;;;;;;5009444;28;20470;-82
2022/06/01 12:55:00;;;;;;;4.13;2.40;;;;;;;;;;5009684;28;20100;-82
2022/06/01 12:58:01;;;;;;;3.95;1.95;;;;;;;;;;5011734;28;20025;-82
2022/06/01 13:00:32;;;;;;;4.45;2.17;;;;;;;;;;4988478;28;20092;-83
2022/06/01 13:02:58;;;;;;;4.85;2.63;;;;;;;;;;5009123;28;20021;-83
2022/06/01 13:05:35;;;;;;;6.45;2.47;;;;;;;;;;5007177;28;20385;-84
2022/06/01 13:08:03;;;;;;;4.03;2.20;;;;;;;;;;5009520;28;20025;-84
2022/06/01 13:10:31;;;;;;;4.25;2.10;;;;;;;;;;5006482;28;20465;-85
2022/06/01 13:13:05;;;;;;;5.32;2.00;;;;;;;;;;4992165;28;20470;-81
2022/06/01 13:15:31;;;;;;;3.67;1.83;;;;;;;;;;5010873;28;20499;-80
2022/06/01 13:17:59;;;;;;;5.05;2.40;;;;;;;;;;5004212;28;20065;-84
2022/06/01 13:20:35;;;;;;;;;;;;;;;;;;5006344;28;20057;-81
2022/06/01 13:23:04;;;;;;;6.95;2.35;;;;;;;;;;5008780;28;19949;-81
2022/06/01 13:25:33;;;;;;;3.95;1.90;;;;;;;;;;5009796;28;20085;-81
2022/06/01 13:27:59;;;;;;;4.28;2.13;;;;;;;;;;5006589;28;20033;-81
2022/06/01 13:30:27;;;;;;;4.85;2.33;;;;;;;;;;5008757;28;20382;-82
2022/06/01 13:32:53;;;;;;;9.60;2.30;;;;;;;;;;5005189;28;20026;-82
2022/06/01 13:35:31;;;;;;;6.22;2.30;;;;;;;;;;5008288;28;20048;-82
2022/06/01 13:37:58;;;;;;;3.88;2.10;;;;;;;;;;5007256;28;20490;-82
2022/06/01 13:40:28;;;;;;;3.70;1.80;;;;;;;;;;5007245;28;20065;-82
2022/06/01 13:43:07;;;;;;;5.65;2.33;;;;;;;;;;5006359;28;20069;-83
2022/06/01 13:45:40;;;;;;;5.80;2.72;;;;;;;;;;5006065;28;20385;-83
2022/06/01 13:48:14;;;;;;;5.13;2.35;;;;;;;;;;5007076;28;20032;-83
2022/06/01 13:50:45;;;;;;;5.53;2.55;;;;;;;;;;5007689;28;20034;-82
2022/06/01 13:53:19;;;;;;;11.63;8.75;;;;;;;;;;5010485;28;20113;-82
2022/06/01 13:56:08;;;;;;;5.30;2.05;;;;;;;;;;5009241;28;20029;-84
2022/06/01 13:58:41;;;;;;;6.32;2.20;;;;;;;;;;5006855;28;20442;-82
2022/06/01 14:01:08;;;;;;;7.75;2.50;;;;;;;;;;5005461;28;20096;-81
2022/06/01 14:03:58;;;;;;;4.15;2.05;;;;;;;;;;4991706;28;20030;-81
2022/06/01 14:06:32;;;;;;;5.35;2.10;;;;;;;;;;5003762;28;20038;-81
2022/06/01 14:08:58;;;;;;;8.13;2.03;;;;;;;;;;5006421;28;20038;-81
2022/06/01 14:11:27;;;;;;;6.05;1.90;;;;;;;;;;4989149;28;20041;-81
2022/06/01 14:13:53;;;;;;;4.18;1.83;;;;;;;;;;4991916;28;20052;-83
2022/06/01 14:16:20;;;;;;;4.82;2.05;;;;;;;;;;4997228;28;20521;-82
2022/06/01 14:18:58;;;;;;;5.28;2.00;;;;;;;;;;5012841;28;20086;-81
2022/06/01 14:21:24;;;;;;;;;;;;;;;;;;5012224;28;20034;-81
2022/06/01 14:23:49;;;;;;;5.10;2.20;;;;;;;;;;4993768;28;19933;-81
2022/06/01 14:29:00;;;;;;;6.53;2.33;;;;;;;;;;5007749;28;20037;-80
2022/06/01 14:31:28;;;;;;;4.57;2.20;;;;;;;;;;5009512;28;20026;-80
2022/06/01 14:33:55;;;;;;;5.43;1.80;;;;;;;;;;5010846;28;20028;-81
2022/06/01 14:36:21;;;;;;;5.45;2.05;;;;;;;;;;5010521;28;20089;-81
2022/06/01 14:38:48;;;;;;;8.48;2.22;;;;;;;;;;5010571;28;20417;-79
2022/06/01 14:41:25;;;;;;;11.98;2.53;;;;;;;;;;5011084;28;20069;-83
2022/06/01 14:43:51;;;;;;;4.70;2.20;;;;;;;;;;5013101;28;20018;-81
2022/06/01 14:46:16;;;;;;;5.05;2.20;;;;;;;;;;5010777;28;20061;-82
2022/06/01 14:48:42;;;;;;;5.47;2.20;;;;;;;;;;5013245;28;20469;-83
2022/06/01 14:51:11;;;;;;;4.85;2.00;;;;;;;;;;5007993;28;20529;-83
2022/06/01 14:53:37;;;;;;;;;;;;;;;;;;5010975;28;20026;-81
2022/06/01 14:56:04;;;;;;;8.20;2.45;;;;;;;;;;5010344;28;19913;-80
2022/06/01 14:58:30;;;;;;;5.05;2.13;;;;;;;;;;5010463;28;20105;-82
2022/06/01 15:01:06;;;;;;;5.18;1.92;;;;;;;;;;5010094;28;20438;-80
2022/06/01 15:03:35;;;;;;;7.63;2.28;;;;;;;;;;5009192;28;20030;-81
2022/06/01 15:06:01;;;;;;;6.95;1.63;;;;;;;;;;5012060;28;20053;-80
2022/06/01 15:08:27;;;;;;;7.10;2.13;;;;;;;;;;5010385;28;20026;-81
2022/06/01 15:10:53;;;;;;;4.75;2.60;;;;;;;;;;5013443;28;20025;-80
2022/06/01 15:13:18;;;;;;;6.70;2.70;;;;;;;;;;4990150;28;20034;-82
2022/06/01 15:15:44;;;;;;;7.38;2.28;;;;;;;;;;5011761;28;20026;-81
2022/06/01 15:18:10;;;;;;;4.18;2.05;;;;;;;;;;5010451;28;20543;-81
2022/06/01 15:20:37;;;;;;;3.35;1.88;;;;;;;;;;5010365;28;20034;-81
2022/06/01 15:23:04;;;;;;;4.97;2.00;;;;;;;;;;5008958;28;20029;-81
2022/06/01 15:25:30;;;;;;;3.88;1.83;;;;;;;;;;5008796;28;20481;-81
2022/06/01 15:27:56;;;;;;;3.08;1.85;;;;;;;;;;5012284;28;20057;-80
2022/06/01 15:41:20;;;;;;;5.47;1.90;;;;;;;;;;5012477;28;20380;-82
2022/06/01 15:43:45;;;;;;;6.75;2.17;;;;;;;;;;5011233;28;20026;-81